sensor_id;sensor_type;location;lat;lon;timestamp;temperature;humidity
3709;DHT22;1870;53.996;10.784;2023-07-20T00:01:07;14.40;99.90
3709;DHT22;1870;53.996;10.784;2023-07-20T00:03:33;14.50;99.90
3709;DHT22;1870;53.996;10.784;2023-07-20T00:05:58;14.60;99.90
3709;DHT22;1870;53.996;10.784;2023-07-20T00:08:24;14.60;99.90
3709;DHT22;1870;53.996;10.784;2023-07-20T00:10:49;14.60;99.90
3709;DHT22;1870;53.996;10.784;2023-07-20T00:13:15;14.50;99.90
3709;DHT22;1870;53.996;10.784;2023-07-20T00:15:44;14.50;99.90
3709;DHT22;1870;53.996;10.784;2023-07-20T00:18:10;14.50;99.90
3709;DHT22;1870;53.996;10.784;2023-07-20T00:20:35;14.40;99.90
3709;DHT22;1870;53.996;10.784;2023-07-20T00:23:01;14.40;99.90
3709;DHT22;1870;53.996;10.784;2023-07-20T00:25:26;14.40;99.90
3709;DHT22;1870;53.996;10.784;2023-07-20T00:27:52;14.50;99.90
3709;DHT22;1870;53.996;10.784;2023-07-20T00:30:18;14.30;99.90
3709;DHT22;1870;53.996;10.784;2023-07-20T00:32:43;14.20;99.90
3709;DHT22;1870;53.996;10.784;2023-07-20T00:35:09;14.30;99.90
3709;DHT22;1870;53.996;10.784;2023-07-20T00:37:35;14.20;99.90
3709;DHT22;1870;53.996;10.784;2023-07-20T00:40:00;14.20;99.90
3709;DHT22;1870;53.996;10.784;2023-07-20T00:42:26;14.60;99.90
3709;DHT22;1870;53.996;10.784;2023-07-20T00:44:51;14.60;99.90
3709;DHT22;1870;53.996;10.784;2023-07-20T00:47:17;14.60;99.90
3709;DHT22;1870;53.996;10.784;2023-07-20T00:49:42;14.50;99.90
3709;DHT22;1870;53.996;10.784;2023-07-20T00:52:09;14.40;99.90
3709;DHT22;1870;53.996;10.784;2023-07-20T00:54:35;14.40;99.90
3709;DHT22;1870;53.996;10.784;2023-07-20T00:57:02;14.30;99.90
3709;DHT22;1870;53.996;10.784;2023-07-20T00:59:28;14.10;99.90
3709;DHT22;1870;53.996;10.784;2023-07-20T01:01:54;14.20;99.90
3709;DHT22;1870;53.996;10.784;2023-07-20T01:04:20;14.20;99.90
3709;DHT22;1870;53.996;10.784;2023-07-20T01:09:18;14.30;99.90
3709;DHT22;1870;53.996;10.784;2023-07-20T01:11:54;14.30;99.90
3709;DHT22;1870;53.996;10.784;2023-07-20T01:14:23;14.20;99.90
3709;DHT22;1870;53.996;10.784;2023-07-20T01:16:49;14.30;99.90
3709;DHT22;1870;53.996;10.784;2023-07-20T01:19:17;14.30;99.90
3709;DHT22;1870;53.996;10.784;2023-07-20T01:31:44;14.50;99.90
3709;DHT22;1870;53.996;10.784;2023-07-20T01:34:09;14.40;99.90
3709;DHT22;1870;53.996;10.784;2023-07-20T01:36:37;14.50;99.90
3709;DHT22;1870;53.996;10.784;2023-07-20T01:39:03;14.50;99.90
3709;DHT22;1870;53.996;10.784;2023-07-20T01:41:30;14.50;99.90
3709;DHT22;1870;53.996;10.784;2023-07-20T01:43:58;14.60;99.90
3709;DHT22;1870;53.996;10.784;2023-07-20T01:46:27;14.50;99.90
3709;DHT22;1870;53.996;10.784;2023-07-20T01:48:53;14.60;99.90
3709;DHT22;1870;53.996;10.784;2023-07-20T01:51:19;14.70;99.90
3709;DHT22;1870;53.996;10.784;2023-07-20T01:53:45;14.60;99.90
3709;DHT22;1870;53.996;10.784;2023-07-20T01:56:10;14.70;99.90
3709;DHT22;1870;53.996;10.784;2023-07-20T01:58:37;14.60;99.90
3709;DHT22;1870;53.996;10.784;2023-07-20T02:01:03;14.80;99.90
3709;DHT22;1870;53.996;10.784;2023-07-20T02:03:29;14.60;99.90
3709;DHT22;1870;53.996;10.784;2023-07-20T02:05:54;14.60;99.90
3709;DHT22;1870;53.996;10.784;2023-07-20T02:08:20;14.60;99.90
3709;DHT22;1870;53.996;10.784;2023-07-20T02:10:46;14.60;99.90
3709;DHT22;1870;53.996;10.784;2023-07-20T02:13:12;14.50;99.90
3709;DHT22;1870;53.996;10.784;2023-07-20T02:15:37;14.60;99.90
3709;DHT22;1870;53.996;10.784;2023-07-20T02:18:03;14.70;99.90
3709;DHT22;1870;53.996;10.784;2023-07-20T02:20:28;14.60;99.90
3709;DHT22;1870;53.996;10.784;2023-07-20T02:22:54;14.60;99.90
3709;DHT22;1870;53.996;10.784;2023-07-20T02:25:20;14.60;99.90
3709;DHT22;1870;53.996;10.784;2023-07-20T02:27:45;14.60;99.90
3709;DHT22;1870;53.996;10.784;2023-07-20T02:30:11;14.50;99.90
3709;DHT22;1870;53.996;10.784;2023-07-20T02:32:36;14.40;99.90
3709;DHT22;1870;53.996;10.784;2023-07-20T02:35:02;14.30;99.90
3709;DHT22;1870;53.996;10.784;2023-07-20T02:37:29;14.40;99.90
3709;DHT22;1870;53.996;10.784;2023-07-20T02:39:54;14.50;99.90
3709;DHT22;1870;53.996;10.784;2023-07-20T02:42:20;14.50;99.90
3709;DHT22;1870;53.996;10.784;2023-07-20T02:44:48;14.50;99.90
3709;DHT22;1870;53.996;10.784;2023-07-20T02:47:13;14.50;99.90
3709;DHT22;1870;53.996;10.784;2023-07-20T02:49:39;14.40;99.90
3709;DHT22;1870;53.996;10.784;2023-07-20T02:52:04;14.40;99.90
3709;DHT22;1870;53.996;10.784;2023-07-20T02:54:30;14.50;99.90
3709;DHT22;1870;53.996;10.784;2023-07-20T02:56:56;14.50;99.90
3709;DHT22;1870;53.996;10.784;2023-07-20T02:59:21;14.50;99.90
3709;DHT22;1870;53.996;10.784;2023-07-20T03:01:47;14.60;99.90
3709;DHT22;1870;53.996;10.784;2023-07-20T03:04:12;14.70;99.90
3709;DHT22;1870;53.996;10.784;2023-07-20T03:06:38;14.90;99.90
3709;DHT22;1870;53.996;10.784;2023-07-20T03:09:03;14.80;99.90
3709;DHT22;1870;53.996;10.784;2023-07-20T03:11:29;14.80;99.90
3709;DHT22;1870;53.996;10.784;2023-07-20T03:13:55;14.80;99.90
3709;DHT22;1870;53.996;10.784;2023-07-20T03:16:21;14.80;99.90
3709;DHT22;1870;53.996;10.784;2023-07-20T03:18:47;14.80;99.90
3709;DHT22;1870;53.996;10.784;2023-07-20T03:21:12;14.70;99.90
3709;DHT22;1870;53.996;10.784;2023-07-20T03:23:38;14.60;99.90
3709;DHT22;1870;53.996;10.784;2023-07-20T03:26:04;14.50;99.90
3709;DHT22;1870;53.996;10.784;2023-07-20T03:28:29;14.40;99.90
3709;DHT22;1870;53.996;10.784;2023-07-20T03:30:55;14.70;99.90
3709;DHT22;1870;53.996;10.784;2023-07-20T03:33:30;14.80;99.90
3709;DHT22;1870;53.996;10.784;2023-07-20T03:35:56;14.60;99.90
3709;DHT22;1870;53.996;10.784;2023-07-20T03:38:25;14.70;99.90
3709;DHT22;1870;53.996;10.784;2023-07-20T03:40:51;14.70;99.90
3709;DHT22;1870;53.996;10.784;2023-07-20T03:43:17;14.70;99.90
3709;DHT22;1870;53.996;10.784;2023-07-20T03:45:43;14.70;99.90
3709;DHT22;1870;53.996;10.784;2023-07-20T03:48:08;14.90;99.90
3709;DHT22;1870;53.996;10.784;2023-07-20T03:50:34;14.90;99.90
3709;DHT22;1870;53.996;10.784;2023-07-20T03:52:59;14.80;99.90
3709;DHT22;1870;53.996;10.784;2023-07-20T03:55:25;14.90;99.90
3709;DHT22;1870;53.996;10.784;2023-07-20T03:57:50;15.00;99.90
3709;DHT22;1870;53.996;10.784;2023-07-20T04:00:16;15.00;99.90
3709;DHT22;1870;53.996;10.784;2023-07-20T04:02:42;15.20;99.90
3709;DHT22;1870;53.996;10.784;2023-07-20T04:05:07;15.30;99.90
3709;DHT22;1870;53.996;10.784;2023-07-20T04:07:33;15.40;99.90
3709;DHT22;1870;53.996;10.784;2023-07-20T04:09:59;15.50;99.90
3709;DHT22;1870;53.996;10.784;2023-07-20T04:12:24;15.60;99.90
3709;DHT22;1870;53.996;10.784;2023-07-20T04:14:50;15.50;99.90
3709;DHT22;1870;53.996;10.784;2023-07-20T04:17:15;15.40;99.90
3709;DHT22;1870;53.996;10.784;2023-07-20T04:19:41;15.50;99.90
3709;DHT22;1870;53.996;10.784;2023-07-20T04:22:06;15.40;99.90
3709;DHT22;1870;53.996;10.784;2023-07-20T04:24:32;15.40;99.90
3709;DHT22;1870;53.996;10.784;2023-07-20T04:26:57;15.40;99.90
3709;DHT22;1870;53.996;10.784;2023-07-20T04:29:23;15.40;99.90
3709;DHT22;1870;53.996;10.784;2023-07-20T04:31:48;15.30;99.90
3709;DHT22;1870;53.996;10.784;2023-07-20T04:34:14;15.20;99.90
3709;DHT22;1870;53.996;10.784;2023-07-20T04:36:39;15.20;99.90
3709;DHT22;1870;53.996;10.784;2023-07-20T04:39:05;15.30;99.90
3709;DHT22;1870;53.996;10.784;2023-07-20T04:41:31;15.20;99.90
3709;DHT22;1870;53.996;10.784;2023-07-20T04:43:56;15.30;99.90
3709;DHT22;1870;53.996;10.784;2023-07-20T04:46:21;15.30;99.90
3709;DHT22;1870;53.996;10.784;2023-07-20T04:48:47;15.30;99.90
3709;DHT22;1870;53.996;10.784;2023-07-20T04:51:13;15.20;99.90
3709;DHT22;1870;53.996;10.784;2023-07-20T04:53:38;15.30;99.90
3709;DHT22;1870;53.996;10.784;2023-07-20T04:56:04;15.30;99.90
3709;DHT22;1870;53.996;10.784;2023-07-20T04:58:29;15.30;99.90
3709;DHT22;1870;53.996;10.784;2023-07-20T05:00:55;15.30;99.90
3709;DHT22;1870;53.996;10.784;2023-07-20T05:03:21;15.30;99.90
3709;DHT22;1870;53.996;10.784;2023-07-20T05:05:46;15.30;99.90
3709;DHT22;1870;53.996;10.784;2023-07-20T05:08:12;15.20;99.90
3709;DHT22;1870;53.996;10.784;2023-07-20T05:10:38;15.30;99.90
3709;DHT22;1870;53.996;10.784;2023-07-20T05:13:03;15.30;99.90
3709;DHT22;1870;53.996;10.784;2023-07-20T05:15:29;15.30;99.90
3709;DHT22;1870;53.996;10.784;2023-07-20T05:17:54;15.30;99.90
3709;DHT22;1870;53.996;10.784;2023-07-20T05:20:20;15.50;99.90
3709;DHT22;1870;53.996;10.784;2023-07-20T05:22:46;15.30;99.90
3709;DHT22;1870;53.996;10.784;2023-07-20T05:25:11;15.30;99.90
3709;DHT22;1870;53.996;10.784;2023-07-20T05:27:37;15.30;99.90
3709;DHT22;1870;53.996;10.784;2023-07-20T05:30:03;15.20;99.90
3709;DHT22;1870;53.996;10.784;2023-07-20T05:32:29;15.20;99.90
3709;DHT22;1870;53.996;10.784;2023-07-20T05:34:55;15.20;99.90
3709;DHT22;1870;53.996;10.784;2023-07-20T05:37:20;15.30;99.90
3709;DHT22;1870;53.996;10.784;2023-07-20T05:39:46;15.30;99.90
3709;DHT22;1870;53.996;10.784;2023-07-20T05:42:12;15.20;99.90
3709;DHT22;1870;53.996;10.784;2023-07-20T05:44:37;15.00;99.90
3709;DHT22;1870;53.996;10.784;2023-07-20T05:47:03;15.10;99.90
3709;DHT22;1870;53.996;10.784;2023-07-20T05:49:29;15.10;99.90
3709;DHT22;1870;53.996;10.784;2023-07-20T05:51:55;15.10;99.90
3709;DHT22;1870;53.996;10.784;2023-07-20T05:54:21;15.10;99.90
3709;DHT22;1870;53.996;10.784;2023-07-20T05:56:46;15.20;99.90
3709;DHT22;1870;53.996;10.784;2023-07-20T05:59:12;15.20;99.90
3709;DHT22;1870;53.996;10.784;2023-07-20T06:01:38;15.20;99.90
3709;DHT22;1870;53.996;10.784;2023-07-20T06:04:03;15.30;99.90
3709;DHT22;1870;53.996;10.784;2023-07-20T06:06:29;15.60;99.90
3709;DHT22;1870;53.996;10.784;2023-07-20T06:08:54;15.50;99.90
3709;DHT22;1870;53.996;10.784;2023-07-20T06:11:20;15.70;99.90
3709;DHT22;1870;53.996;10.784;2023-07-20T06:13:45;15.70;99.90
3709;DHT22;1870;53.996;10.784;2023-07-20T06:16:11;15.70;99.90
3709;DHT22;1870;53.996;10.784;2023-07-20T06:18:36;15.80;99.90
3709;DHT22;1870;53.996;10.784;2023-07-20T06:21:02;15.80;99.90
3709;DHT22;1870;53.996;10.784;2023-07-20T06:23:28;15.80;99.90
3709;DHT22;1870;53.996;10.784;2023-07-20T06:25:53;15.80;99.90
3709;DHT22;1870;53.996;10.784;2023-07-20T06:28:19;15.70;99.90
3709;DHT22;1870;53.996;10.784;2023-07-20T06:30:44;15.80;99.90
3709;DHT22;1870;53.996;10.784;2023-07-20T06:33:10;15.90;99.90
3709;DHT22;1870;53.996;10.784;2023-07-20T06:35:35;16.00;99.90
3709;DHT22;1870;53.996;10.784;2023-07-20T06:38:01;16.10;99.90
3709;DHT22;1870;53.996;10.784;2023-07-20T06:40:28;16.10;99.90
3709;DHT22;1870;53.996;10.784;2023-07-20T06:42:53;16.10;99.90
3709;DHT22;1870;53.996;10.784;2023-07-20T06:45:19;16.20;99.90
3709;DHT22;1870;53.996;10.784;2023-07-20T06:47:45;16.30;99.90
3709;DHT22;1870;53.996;10.784;2023-07-20T06:50:10;16.30;99.90
3709;DHT22;1870;53.996;10.784;2023-07-20T06:52:36;16.40;99.90
3709;DHT22;1870;53.996;10.784;2023-07-20T06:55:01;16.60;99.90
3709;DHT22;1870;53.996;10.784;2023-07-20T06:57:27;16.70;99.90
3709;DHT22;1870;53.996;10.784;2023-07-20T06:59:53;16.90;99.90
3709;DHT22;1870;53.996;10.784;2023-07-20T07:02:18;17.00;99.90
3709;DHT22;1870;53.996;10.784;2023-07-20T07:04:44;17.10;99.90
3709;DHT22;1870;53.996;10.784;2023-07-20T07:07:10;17.10;99.90
3709;DHT22;1870;53.996;10.784;2023-07-20T07:09:36;17.10;99.90
3709;DHT22;1870;53.996;10.784;2023-07-20T07:12:01;17.30;99.90
3709;DHT22;1870;53.996;10.784;2023-07-20T07:14:27;17.60;99.90
3709;DHT22;1870;53.996;10.784;2023-07-20T07:16:52;17.70;99.90
3709;DHT22;1870;53.996;10.784;2023-07-20T07:19:18;17.60;99.90
3709;DHT22;1870;53.996;10.784;2023-07-20T07:21:44;17.80;99.90
3709;DHT22;1870;53.996;10.784;2023-07-20T07:24:10;17.90;99.90
3709;DHT22;1870;53.996;10.784;2023-07-20T07:26:36;17.90;99.90
3709;DHT22;1870;53.996;10.784;2023-07-20T07:29:02;18.00;99.90
3709;DHT22;1870;53.996;10.784;2023-07-20T07:31:28;18.10;99.90
3709;DHT22;1870;53.996;10.784;2023-07-20T07:33:54;18.10;99.90
3709;DHT22;1870;53.996;10.784;2023-07-20T07:36:20;18.00;99.90
3709;DHT22;1870;53.996;10.784;2023-07-20T07:38:45;18.00;99.90
3709;DHT22;1870;53.996;10.784;2023-07-20T07:41:11;17.90;99.90
3709;DHT22;1870;53.996;10.784;2023-07-20T07:43:37;18.00;99.90
3709;DHT22;1870;53.996;10.784;2023-07-20T07:46:04;18.00;99.90
3709;DHT22;1870;53.996;10.784;2023-07-20T07:48:29;18.10;99.90
3709;DHT22;1870;53.996;10.784;2023-07-20T07:50:55;18.20;99.90
3709;DHT22;1870;53.996;10.784;2023-07-20T07:53:20;18.30;99.90
3709;DHT22;1870;53.996;10.784;2023-07-20T07:55:49;18.20;99.90
3709;DHT22;1870;53.996;10.784;2023-07-20T07:58:14;17.90;99.90
3709;DHT22;1870;53.996;10.784;2023-07-20T08:00:40;18.00;99.90
3709;DHT22;1870;53.996;10.784;2023-07-20T08:03:08;18.10;99.90
3709;DHT22;1870;53.996;10.784;2023-07-20T08:05:34;18.00;99.90
3709;DHT22;1870;53.996;10.784;2023-07-20T08:08:00;17.90;99.90
3709;DHT22;1870;53.996;10.784;2023-07-20T08:10:26;17.90;99.90
3709;DHT22;1870;53.996;10.784;2023-07-20T08:12:52;18.00;99.90
3709;DHT22;1870;53.996;10.784;2023-07-20T08:15:17;18.00;99.90
3709;DHT22;1870;53.996;10.784;2023-07-20T08:17:43;18.20;99.90
3709;DHT22;1870;53.996;10.784;2023-07-20T08:20:12;18.20;99.90
3709;DHT22;1870;53.996;10.784;2023-07-20T08:22:38;18.10;99.90
3709;DHT22;1870;53.996;10.784;2023-07-20T08:25:05;18.10;99.90
3709;DHT22;1870;53.996;10.784;2023-07-20T08:27:30;18.20;99.90
3709;DHT22;1870;53.996;10.784;2023-07-20T08:29:56;18.30;99.90
3709;DHT22;1870;53.996;10.784;2023-07-20T08:32:21;18.30;99.90
3709;DHT22;1870;53.996;10.784;2023-07-20T08:34:47;18.30;99.90
3709;DHT22;1870;53.996;10.784;2023-07-20T08:37:13;18.20;99.90
3709;DHT22;1870;53.996;10.784;2023-07-20T08:39:38;18.30;99.90
3709;DHT22;1870;53.996;10.784;2023-07-20T08:42:04;18.50;99.90
3709;DHT22;1870;53.996;10.784;2023-07-20T08:44:34;18.70;99.90
3709;DHT22;1870;53.996;10.784;2023-07-20T08:47:01;18.90;99.90
3709;DHT22;1870;53.996;10.784;2023-07-20T08:49:28;18.90;99.90
3709;DHT22;1870;53.996;10.784;2023-07-20T08:51:54;19.00;99.90
3709;DHT22;1870;53.996;10.784;2023-07-20T08:54:19;18.90;99.90
3709;DHT22;1870;53.996;10.784;2023-07-20T08:56:45;18.80;99.90
3709;DHT22;1870;53.996;10.784;2023-07-20T08:59:12;18.90;99.90
3709;DHT22;1870;53.996;10.784;2023-07-20T09:01:39;19.10;99.90
3709;DHT22;1870;53.996;10.784;2023-07-20T09:04:04;19.20;99.90
3709;DHT22;1870;53.996;10.784;2023-07-20T09:06:30;19.30;99.90
3709;DHT22;1870;53.996;10.784;2023-07-20T09:08:55;19.40;99.90
3709;DHT22;1870;53.996;10.784;2023-07-20T09:11:21;19.50;99.90
3709;DHT22;1870;53.996;10.784;2023-07-20T09:14:01;19.60;99.90
3709;DHT22;1870;53.996;10.784;2023-07-20T09:16:27;19.60;99.90
3709;DHT22;1870;53.996;10.784;2023-07-20T09:18:53;19.80;99.90
3709;DHT22;1870;53.996;10.784;2023-07-20T09:21:19;19.80;99.90
3709;DHT22;1870;53.996;10.784;2023-07-20T09:23:44;19.80;99.90
3709;DHT22;1870;53.996;10.784;2023-07-20T09:26:10;20.00;99.90
3709;DHT22;1870;53.996;10.784;2023-07-20T09:28:43;20.20;99.90
3709;DHT22;1870;53.996;10.784;2023-07-20T09:31:15;20.20;99.90
3709;DHT22;1870;53.996;10.784;2023-07-20T09:33:41;19.80;99.90
3709;DHT22;1870;53.996;10.784;2023-07-20T09:36:07;19.80;99.90
3709;DHT22;1870;53.996;10.784;2023-07-20T09:38:34;19.70;99.90
3709;DHT22;1870;53.996;10.784;2023-07-20T09:41:01;19.40;99.90
3709;DHT22;1870;53.996;10.784;2023-07-20T09:43:28;19.00;99.90
3709;DHT22;1870;53.996;10.784;2023-07-20T09:45:57;18.80;99.90
3709;DHT22;1870;53.996;10.784;2023-07-20T09:48:23;18.50;99.90
3709;DHT22;1870;53.996;10.784;2023-07-20T09:50:49;18.50;99.90
3709;DHT22;1870;53.996;10.784;2023-07-20T09:53:16;18.60;99.90
3709;DHT22;1870;53.996;10.784;2023-07-20T09:55:43;18.80;99.90
3709;DHT22;1870;53.996;10.784;2023-07-20T09:58:09;18.50;99.90
3709;DHT22;1870;53.996;10.784;2023-07-20T10:00:38;18.60;99.90
3709;DHT22;1870;53.996;10.784;2023-07-20T10:03:04;18.80;99.90
3709;DHT22;1870;53.996;10.784;2023-07-20T10:05:33;19.00;99.90
3709;DHT22;1870;53.996;10.784;2023-07-20T10:08:01;19.40;99.90
3709;DHT22;1870;53.996;10.784;2023-07-20T10:10:27;19.70;99.90
3709;DHT22;1870;53.996;10.784;2023-07-20T10:12:53;19.80;99.90
3709;DHT22;1870;53.996;10.784;2023-07-20T10:15:20;19.60;99.90
3709;DHT22;1870;53.996;10.784;2023-07-20T10:17:49;19.40;99.90
3709;DHT22;1870;53.996;10.784;2023-07-20T10:20:19;19.40;99.90
3709;DHT22;1870;53.996;10.784;2023-07-20T10:22:46;19.20;99.90
3709;DHT22;1870;53.996;10.784;2023-07-20T10:25:12;19.20;99.90
3709;DHT22;1870;53.996;10.784;2023-07-20T10:27:39;19.20;99.90
3709;DHT22;1870;53.996;10.784;2023-07-20T10:30:05;19.10;99.90
3709;DHT22;1870;53.996;10.784;2023-07-20T10:32:31;19.00;99.90
3709;DHT22;1870;53.996;10.784;2023-07-20T10:34:56;19.00;99.90
3709;DHT22;1870;53.996;10.784;2023-07-20T10:38:07;19.00;99.90
3709;DHT22;1870;53.996;10.784;2023-07-20T10:40:27;19.20;99.90
3709;DHT22;1870;53.996;10.784;2023-07-20T10:42:56;19.40;99.90
3709;DHT22;1870;53.996;10.784;2023-07-20T10:45:32;19.60;99.90
3709;DHT22;1870;53.996;10.784;2023-07-20T10:47:58;19.50;99.90
3709;DHT22;1870;53.996;10.784;2023-07-20T10:50:23;19.50;99.90
3709;DHT22;1870;53.996;10.784;2023-07-20T10:53:03;19.50;99.90
3709;DHT22;1870;53.996;10.784;2023-07-20T10:55:30;19.60;99.90
3709;DHT22;1870;53.996;10.784;2023-07-20T10:58:06;19.50;99.90
3709;DHT22;1870;53.996;10.784;2023-07-20T11:00:31;19.30;99.90
3709;DHT22;1870;53.996;10.784;2023-07-20T11:02:58;19.40;99.90
3709;DHT22;1870;53.996;10.784;2023-07-20T11:08:00;19.50;99.90
3709;DHT22;1870;53.996;10.784;2023-07-20T11:10:27;19.90;99.90
3709;DHT22;1870;53.996;10.784;2023-07-20T11:15:46;20.30;99.90
3709;DHT22;1870;53.996;10.784;2023-07-20T11:18:12;20.60;99.90
3709;DHT22;1870;53.996;10.784;2023-07-20T11:20:38;20.20;99.90
3709;DHT22;1870;53.996;10.784;2023-07-20T11:23:03;19.50;99.90
3709;DHT22;1870;53.996;10.784;2023-07-20T11:25:36;18.80;99.90
3709;DHT22;1870;53.996;10.784;2023-07-20T11:28:02;18.00;99.90
3709;DHT22;1870;53.996;10.784;2023-07-20T11:30:32;17.50;99.90
3709;DHT22;1870;53.996;10.784;2023-07-20T11:32:58;17.20;99.90
3709;DHT22;1870;53.996;10.784;2023-07-20T11:35:23;17.00;99.90
3709;DHT22;1870;53.996;10.784;2023-07-20T11:37:49;16.90;99.90
3709;DHT22;1870;53.996;10.784;2023-07-20T11:40:14;17.10;99.90
3709;DHT22;1870;53.996;10.784;2023-07-20T11:42:40;17.20;99.90
3709;DHT22;1870;53.996;10.784;2023-07-20T11:45:06;17.30;99.90
3709;DHT22;1870;53.996;10.784;2023-07-20T11:47:32;17.40;99.90
3709;DHT22;1870;53.996;10.784;2023-07-20T11:50:02;17.60;99.90
3709;DHT22;1870;53.996;10.784;2023-07-20T11:52:28;17.70;99.90
3709;DHT22;1870;53.996;10.784;2023-07-20T11:54:53;17.80;99.90
3709;DHT22;1870;53.996;10.784;2023-07-20T11:57:19;18.00;99.90
3709;DHT22;1870;53.996;10.784;2023-07-20T12:02:22;18.30;99.90
3709;DHT22;1870;53.996;10.784;2023-07-20T12:04:50;18.40;99.90
3709;DHT22;1870;53.996;10.784;2023-07-20T12:07:16;18.50;99.90
3709;DHT22;1870;53.996;10.784;2023-07-20T12:09:42;18.60;99.90
3709;DHT22;1870;53.996;10.784;2023-07-20T12:12:10;18.50;99.90
3709;DHT22;1870;53.996;10.784;2023-07-20T12:14:38;18.60;99.90
3709;DHT22;1870;53.996;10.784;2023-07-20T12:17:04;18.80;99.90
3709;DHT22;1870;53.996;10.784;2023-07-20T12:19:37;18.80;99.90
3709;DHT22;1870;53.996;10.784;2023-07-20T12:22:03;18.80;99.90
3709;DHT22;1870;53.996;10.784;2023-07-20T12:24:28;19.00;99.90
3709;DHT22;1870;53.996;10.784;2023-07-20T12:26:58;19.10;99.90
3709;DHT22;1870;53.996;10.784;2023-07-20T12:29:24;19.20;99.90
3709;DHT22;1870;53.996;10.784;2023-07-20T12:31:49;19.30;99.90
3709;DHT22;1870;53.996;10.784;2023-07-20T12:34:15;19.60;99.90
3709;DHT22;1870;53.996;10.784;2023-07-20T12:36:40;19.70;99.90
3709;DHT22;1870;53.996;10.784;2023-07-20T12:39:06;19.60;99.90
3709;DHT22;1870;53.996;10.784;2023-07-20T12:41:31;19.90;99.90
3709;DHT22;1870;53.996;10.784;2023-07-20T12:43:57;20.00;99.90
3709;DHT22;1870;53.996;10.784;2023-07-20T12:46:23;20.00;99.90
3709;DHT22;1870;53.996;10.784;2023-07-20T12:48:49;20.10;99.90
3709;DHT22;1870;53.996;10.784;2023-07-20T12:51:14;20.40;99.90
3709;DHT22;1870;53.996;10.784;2023-07-20T12:53:40;20.30;99.90
3709;DHT22;1870;53.996;10.784;2023-07-20T12:56:06;20.50;99.90
3709;DHT22;1870;53.996;10.784;2023-07-20T12:58:31;20.80;99.90
3709;DHT22;1870;53.996;10.784;2023-07-20T13:00:57;21.00;99.90
3709;DHT22;1870;53.996;10.784;2023-07-20T13:03:23;20.80;99.90
3709;DHT22;1870;53.996;10.784;2023-07-20T13:05:48;20.80;99.90
3709;DHT22;1870;53.996;10.784;2023-07-20T13:08:14;20.70;99.90
3709;DHT22;1870;53.996;10.784;2023-07-20T13:10:40;20.80;99.90
3709;DHT22;1870;53.996;10.784;2023-07-20T13:13:05;20.90;99.90
3709;DHT22;1870;53.996;10.784;2023-07-20T13:15:31;20.50;99.90
3709;DHT22;1870;53.996;10.784;2023-07-20T13:17:58;20.50;99.90
3709;DHT22;1870;53.996;10.784;2023-07-20T13:20:24;20.50;99.90
3709;DHT22;1870;53.996;10.784;2023-07-20T13:22:49;19.90;99.90
3709;DHT22;1870;53.996;10.784;2023-07-20T13:25:16;19.40;99.90
3709;DHT22;1870;53.996;10.784;2023-07-20T13:27:41;19.00;99.90
3709;DHT22;1870;53.996;10.784;2023-07-20T13:30:07;19.10;99.90
3709;DHT22;1870;53.996;10.784;2023-07-20T13:32:35;18.90;99.90
3709;DHT22;1870;53.996;10.784;2023-07-20T13:35:01;19.00;99.90
3709;DHT22;1870;53.996;10.784;2023-07-20T13:37:26;19.40;99.90
3709;DHT22;1870;53.996;10.784;2023-07-20T13:39:52;19.70;99.90
3709;DHT22;1870;53.996;10.784;2023-07-20T13:42:18;20.00;99.90
3709;DHT22;1870;53.996;10.784;2023-07-20T13:44:43;20.20;99.90
3709;DHT22;1870;53.996;10.784;2023-07-20T13:47:12;20.60;99.90
3709;DHT22;1870;53.996;10.784;2023-07-20T13:49:37;20.40;99.90
3709;DHT22;1870;53.996;10.784;2023-07-20T13:52:03;20.60;99.90
3709;DHT22;1870;53.996;10.784;2023-07-20T13:54:28;20.70;99.90
3709;DHT22;1870;53.996;10.784;2023-07-20T13:56:54;20.50;99.90
3709;DHT22;1870;53.996;10.784;2023-07-20T13:59:23;20.50;99.90
3709;DHT22;1870;53.996;10.784;2023-07-20T14:01:48;20.60;99.90
3709;DHT22;1870;53.996;10.784;2023-07-20T14:04:14;20.80;99.90
3709;DHT22;1870;53.996;10.784;2023-07-20T14:06:40;21.20;99.90
3709;DHT22;1870;53.996;10.784;2023-07-20T14:09:06;21.60;99.90
3709;DHT22;1870;53.996;10.784;2023-07-20T14:11:31;22.00;99.90
3709;DHT22;1870;53.996;10.784;2023-07-20T14:13:57;21.90;99.90
3709;DHT22;1870;53.996;10.784;2023-07-20T14:16:23;22.00;99.90
3709;DHT22;1870;53.996;10.784;2023-07-20T14:18:49;21.60;99.90
3709;DHT22;1870;53.996;10.784;2023-07-20T14:21:15;21.30;99.90
3709;DHT22;1870;53.996;10.784;2023-07-20T14:23:41;21.00;99.90
3709;DHT22;1870;53.996;10.784;2023-07-20T14:26:07;20.50;99.90
3709;DHT22;1870;53.996;10.784;2023-07-20T14:28:34;20.40;99.90
3709;DHT22;1870;53.996;10.784;2023-07-20T14:31:00;20.30;99.90
3709;DHT22;1870;53.996;10.784;2023-07-20T14:33:25;20.20;99.90
3709;DHT22;1870;53.996;10.784;2023-07-20T14:35:51;20.20;99.90
3709;DHT22;1870;53.996;10.784;2023-07-20T14:38:16;20.30;99.90
3709;DHT22;1870;53.996;10.784;2023-07-20T14:40:42;20.40;99.90
3709;DHT22;1870;53.996;10.784;2023-07-20T14:43:08;20.50;99.90
3709;DHT22;1870;53.996;10.784;2023-07-20T14:45:33;20.60;99.90
3709;DHT22;1870;53.996;10.784;2023-07-20T14:47:59;20.80;99.90
3709;DHT22;1870;53.996;10.784;2023-07-20T14:50:25;20.70;99.90
3709;DHT22;1870;53.996;10.784;2023-07-20T14:52:50;20.80;99.90
3709;DHT22;1870;53.996;10.784;2023-07-20T14:55:16;20.50;99.90
3709;DHT22;1870;53.996;10.784;2023-07-20T14:57:42;20.50;99.90
3709;DHT22;1870;53.996;10.784;2023-07-20T15:00:08;20.70;99.90
3709;DHT22;1870;53.996;10.784;2023-07-20T15:02:38;20.70;99.90
3709;DHT22;1870;53.996;10.784;2023-07-20T15:05:08;20.40;99.90
3709;DHT22;1870;53.996;10.784;2023-07-20T15:07:33;20.20;99.90
3709;DHT22;1870;53.996;10.784;2023-07-20T15:10:00;20.10;99.90
3709;DHT22;1870;53.996;10.784;2023-07-20T15:12:25;20.00;99.90
3709;DHT22;1870;53.996;10.784;2023-07-20T15:15:04;19.90;99.90
3709;DHT22;1870;53.996;10.784;2023-07-20T15:17:33;20.00;99.90
3709;DHT22;1870;53.996;10.784;2023-07-20T15:19:59;20.60;99.90
3709;DHT22;1870;53.996;10.784;2023-07-20T15:22:24;21.20;99.90
3709;DHT22;1870;53.996;10.784;2023-07-20T15:24:50;21.40;99.90
3709;DHT22;1870;53.996;10.784;2023-07-20T15:27:16;21.20;99.90
3709;DHT22;1870;53.996;10.784;2023-07-20T15:29:41;21.00;99.90
3709;DHT22;1870;53.996;10.784;2023-07-20T15:32:07;20.70;99.90
3709;DHT22;1870;53.996;10.784;2023-07-20T15:34:34;20.40;99.90
3709;DHT22;1870;53.996;10.784;2023-07-20T15:36:59;20.20;99.90
3709;DHT22;1870;53.996;10.784;2023-07-20T15:39:25;19.90;99.90
3709;DHT22;1870;53.996;10.784;2023-07-20T15:41:51;19.90;99.90
3709;DHT22;1870;53.996;10.784;2023-07-20T15:44:17;20.00;99.90
3709;DHT22;1870;53.996;10.784;2023-07-20T15:46:46;20.00;99.90
3709;DHT22;1870;53.996;10.784;2023-07-20T15:49:12;20.80;99.90
3709;DHT22;1870;53.996;10.784;2023-07-20T15:51:38;21.70;99.90
3709;DHT22;1870;53.996;10.784;2023-07-20T15:54:10;22.20;99.90
3709;DHT22;1870;53.996;10.784;2023-07-20T15:56:36;22.70;99.90
3709;DHT22;1870;53.996;10.784;2023-07-20T15:59:02;23.10;99.90